createdAt,value
2022-09-24T00:00:17.265Z,99.26
2022-09-24T00:01:17.298Z,99.26
2022-09-24T00:02:17.287Z,99.26
2022-09-24T00:03:17.270Z,99.16
2022-09-24T00:04:17.219Z,99.26
2022-09-24T00:05:17.209Z,99.46
2022-09-24T00:06:17.199Z,99.56
2022-09-24T00:07:17.207Z,99.66
2022-09-24T00:08:17.171Z,99.66
2022-09-24T00:09:17.166Z,99.66
2022-09-24T00:10:17.155Z,99.66
2022-09-24T00:11:17.144Z,99.56
2022-09-24T00:12:17.169Z,99.36
2022-09-24T00:13:17.127Z,99.26
2022-09-24T00:14:17.113Z,99.16
2022-09-24T00:15:17.094Z,99.05
2022-09-24T00:16:17.127Z,99.05
2022-09-24T00:17:17.107Z,99.05
2022-09-24T00:18:17.063Z,99.05
2022-09-24T00:19:17.062Z,99.16
2022-09-24T00:20:17.043Z,99.26
2022-09-24T00:21:17.055Z,99.36
2022-09-24T00:22:17.031Z,99.46
2022-09-24T00:23:17.041Z,99.46
2022-09-24T00:24:16.994Z,99.46
2022-09-24T00:25:16.994Z,99.46
2022-09-24T00:26:16.982Z,99.46
2022-09-24T00:27:17.000Z,99.46
2022-09-24T00:28:16.960Z,99.36
2022-09-24T00:29:16.945Z,99.36
2022-09-24T00:30:16.935Z,99.26
2022-09-24T00:31:17.026Z,99.05
2022-09-24T00:32:16.926Z,98.85
2022-09-24T00:33:16.929Z,98.65
2022-09-24T00:34:16.904Z,98.65
2022-09-24T00:35:16.897Z,98.50
2022-09-24T00:36:16.868Z,98.50
2022-09-24T00:37:16.898Z,98.30
2022-09-24T00:38:16.852Z,98.19
2022-09-24T00:39:16.840Z,98.09
2022-09-24T00:40:16.850Z,98.09
2022-09-24T00:41:16.815Z,98.09
2022-09-24T00:42:16.818Z,98.09
2022-09-24T00:43:16.823Z,97.69
2022-09-24T00:44:16.788Z,97.48
2022-09-24T00:45:16.777Z,97.38
2022-09-24T00:46:16.819Z,97.17
2022-09-24T00:47:16.756Z,97.07
2022-09-24T00:48:16.757Z,96.97
2022-09-24T00:49:16.740Z,96.77
2022-09-24T00:50:16.720Z,96.77
2022-09-24T00:51:16.708Z,96.87
2022-09-24T00:52:16.709Z,96.97
2022-09-24T00:53:16.707Z,97.07
2022-09-24T00:54:16.684Z,97.07
2022-09-24T00:55:16.666Z,97.07
2022-09-24T00:56:16.663Z,97.17
2022-09-24T00:57:16.640Z,97.17
2022-09-24T00:58:16.659Z,96.87
2022-09-24T00:59:16.629Z,96.77
2022-09-24T01:00:16.610Z,96.97
2022-09-24T01:01:16.700Z,96.87
2022-09-24T01:02:16.693Z,97.17
2022-09-24T01:03:16.600Z,97.48
2022-09-24T01:04:16.559Z,97.69
2022-09-24T01:05:16.550Z,97.89
2022-09-24T01:06:16.548Z,97.89
2022-09-24T01:07:16.539Z,98.09
2022-09-24T01:08:16.560Z,98.09
2022-09-24T01:09:16.510Z,98.09
2022-09-24T01:10:16.499Z,98.19
2022-09-24T01:11:16.491Z,98.30
2022-09-24T01:12:16.511Z,98.30
2022-09-24T01:13:16.492Z,98.50
2022-09-24T01:14:16.451Z,98.60
2022-09-24T01:15:16.457Z,98.80
2022-09-24T01:16:16.521Z,98.50
2022-09-24T01:17:16.422Z,98.19
2022-09-24T01:18:16.412Z,98.30
2022-09-24T01:19:16.432Z,98.39
2022-09-24T01:20:16.395Z,98.60
2022-09-24T01:21:16.383Z,98.91
2022-09-24T01:22:16.384Z,98.91
2022-09-24T01:23:16.384Z,98.70
2022-09-24T01:24:16.343Z,98.70
2022-09-24T01:25:16.341Z,98.50
2022-09-24T01:26:16.335Z,98.50
2022-09-24T01:27:16.312Z,98.70
2022-09-24T01:28:16.335Z,99.01
2022-09-24T01:29:16.292Z,99.01
2022-09-24T01:30:16.283Z,99.21
2022-09-24T01:31:16.315Z,99.31
2022-09-24T01:32:16.279Z,99.41
2022-09-24T01:33:16.281Z,99.52
2022-09-24T01:34:16.244Z,99.41
2022-09-24T01:35:16.233Z,99.56
2022-09-24T01:36:16.216Z,99.56
2022-09-24T01:37:16.236Z,99.66
2022-09-24T01:38:16.215Z,99.97
2022-09-24T01:39:16.186Z,99.99
2022-09-24T01:40:16.202Z,99.99
2022-09-24T01:41:16.165Z,99.99
2022-09-24T01:42:16.162Z,99.99
2022-09-24T01:43:16.145Z,99.99
2022-09-24T01:44:16.146Z,99.99
2022-09-24T01:45:16.116Z,99.99
2022-09-24T01:46:16.204Z,99.99
2022-09-24T01:47:16.096Z,99.99
2022-09-24T01:48:16.125Z,99.99
2022-09-24T01:49:16.075Z,99.99
2022-09-24T01:50:16.066Z,99.99
2022-09-24T01:51:16.057Z,99.99
2022-09-24T01:52:16.076Z,99.99
2022-09-24T01:53:16.038Z,99.99
2022-09-24T01:54:16.047Z,99.99
2022-09-24T01:55:16.022Z,99.99
2022-09-24T01:56:16.008Z,99.99
2022-09-24T01:57:15.996Z,99.99
2022-09-24T01:58:15.998Z,99.99
2022-09-24T01:59:15.968Z,99.99
2022-09-24T02:00:15.957Z,99.99
2022-09-24T02:01:15.980Z,99.99
2022-09-24T02:02:16.080Z,99.99
2022-09-24T02:03:15.949Z,99.99
2022-09-24T02:04:15.917Z,99.99
2022-09-24T02:05:15.902Z,99.99
2022-09-24T02:06:15.888Z,99.99
2022-09-24T02:07:15.890Z,99.99
2022-09-24T02:08:15.871Z,99.99
2022-09-24T02:09:15.879Z,99.99
2022-09-24T02:10:15.855Z,99.99
2022-09-24T02:11:15.888Z,99.99
2022-09-24T02:12:15.841Z,99.99
2022-09-24T02:13:15.838Z,99.99
2022-09-24T02:14:15.800Z,99.99
2022-09-24T02:15:15.798Z,99.99
2022-09-24T02:16:15.838Z,99.99
2022-09-24T02:17:15.776Z,99.99
2022-09-24T02:18:15.778Z,99.99
2022-09-24T02:19:15.758Z,99.99
2022-09-24T02:20:15.770Z,99.99
2022-09-24T02:21:15.730Z,99.99
2022-09-24T02:22:15.728Z,99.99
2022-09-24T02:23:15.709Z,99.99
2022-09-24T02:24:15.698Z,99.99
2022-09-24T02:25:15.690Z,99.99
2022-09-24T02:26:15.700Z,99.99
2022-09-24T02:27:15.671Z,99.99
2022-09-24T02:28:15.651Z,99.99
2022-09-24T02:29:15.653Z,99.99
2022-09-24T02:30:15.653Z,99.99
2022-09-24T02:31:15.650Z,99.99
2022-09-24T02:32:15.622Z,99.99
2022-09-24T02:33:15.604Z,99.99
2022-09-24T02:34:15.594Z,99.99
2022-09-24T02:35:15.602Z,99.99
2022-09-24T02:36:15.563Z,99.99
2022-09-24T02:37:15.560Z,99.99
2022-09-24T02:38:15.544Z,99.99
2022-09-24T02:39:15.535Z,99.99
2022-09-24T02:40:15.621Z,99.99
2022-09-24T02:41:15.511Z,99.99
2022-09-24T02:42:15.514Z,99.99
2022-09-24T02:43:15.492Z,99.99
2022-09-24T02:44:15.484Z,99.99
2022-09-24T02:45:15.500Z,99.99
2022-09-24T02:46:15.499Z,99.99
2022-09-24T02:47:15.453Z,99.99
2022-09-24T02:48:15.434Z,99.99
2022-09-24T02:49:15.432Z,99.99
2022-09-24T02:50:15.415Z,99.99
2022-09-24T02:51:15.423Z,99.99
2022-09-24T02:52:15.404Z,99.99
2022-09-24T02:53:15.383Z,99.99
2022-09-24T02:54:15.372Z,99.99
2022-09-24T02:55:15.384Z,99.99
2022-09-24T02:56:15.352Z,99.99
2022-09-24T02:57:15.366Z,99.99
2022-09-24T02:58:15.446Z,99.99
2022-09-24T02:59:15.325Z,99.99
2022-09-24T03:00:15.313Z,99.99
2022-09-24T03:01:15.332Z,99.99
2022-09-24T03:02:15.492Z,99.99
2022-09-24T03:03:15.366Z,99.99
2022-09-24T03:04:15.264Z,99.99
2022-09-24T03:05:15.256Z,99.99
2022-09-24T03:06:15.245Z,99.99
2022-09-24T03:07:15.237Z,99.99
2022-09-24T03:08:15.244Z,99.99
2022-09-24T03:09:15.218Z,99.99
2022-09-24T03:10:15.197Z,99.99
2022-09-24T03:11:18.471Z,99.99
2022-09-24T03:12:15.215Z,99.99
2022-09-24T03:13:15.170Z,99.99
2022-09-24T03:14:15.179Z,99.99
2022-09-24T03:15:15.147Z,99.99
2022-09-24T03:16:15.214Z,99.99
2022-09-24T03:17:15.118Z,99.99
2022-09-24T03:18:15.108Z,99.99
2022-09-24T03:19:15.129Z,99.99
2022-09-24T03:20:15.088Z,99.99
2022-09-24T03:21:15.200Z,99.99
2022-09-24T03:22:15.102Z,99.99
2022-09-24T03:23:15.056Z,99.99
2022-09-24T03:24:15.047Z,99.99
2022-09-24T03:25:15.059Z,99.99
2022-09-24T03:26:15.031Z,99.99
2022-09-24T03:27:15.007Z,99.99
2022-09-24T03:28:15.001Z,99.99
2022-09-24T03:29:14.992Z,99.99
2022-09-24T03:30:15.009Z,99.99
2022-09-24T03:31:15.057Z,99.99
2022-09-24T03:32:15.058Z,99.99
2022-09-24T03:33:14.958Z,99.99
2022-09-24T03:34:14.941Z,99.99
2022-09-24T03:35:14.929Z,99.99
2022-09-24T03:36:14.940Z,99.99
2022-09-24T03:37:14.898Z,99.99
2022-09-24T03:38:14.899Z,99.99
2022-09-24T03:39:14.887Z,99.99
2022-09-24T03:40:14.952Z,99.99
2022-09-24T03:41:14.879Z,99.99
2022-09-24T03:42:14.859Z,99.99
2022-09-24T03:43:14.839Z,99.99
2022-09-24T03:44:14.831Z,99.99
2022-09-24T03:45:14.820Z,99.99
2022-09-24T03:46:14.883Z,99.99
2022-09-24T03:47:14.801Z,99.99
2022-09-24T03:48:14.792Z,99.99
2022-09-24T03:49:14.771Z,99.99
2022-09-24T03:50:14.804Z,99.99
2022-09-24T03:51:14.770Z,99.99
2022-09-24T03:52:14.772Z,99.99
2022-09-24T03:53:14.752Z,99.99
2022-09-24T03:54:14.724Z,99.99
2022-09-24T03:55:14.713Z,99.99
2022-09-24T03:56:14.729Z,99.99
2022-09-24T03:57:14.708Z,99.99
2022-09-24T03:58:14.681Z,99.99
2022-09-24T03:59:14.663Z,99.99
2022-09-24T04:00:14.662Z,99.99
2022-09-24T04:01:14.644Z,99.99
2022-09-24T04:02:14.653Z,99.99
2022-09-24T04:03:14.647Z,99.99
2022-09-24T04:04:14.634Z,99.99
2022-09-24T04:05:14.601Z,99.99
2022-09-24T04:06:14.596Z,99.99
2022-09-24T04:07:14.574Z,99.99
2022-09-24T04:08:14.600Z,99.99
2022-09-24T04:09:14.584Z,99.99
2022-09-24T04:10:14.556Z,99.99
2022-09-24T04:11:14.533Z,99.99
2022-09-24T04:12:14.534Z,99.99
2022-09-24T04:13:14.522Z,99.99
2022-09-24T04:14:14.526Z,99.99
2022-09-24T04:15:14.491Z,99.99
2022-09-24T04:16:14.600Z,99.99
2022-09-24T04:17:14.473Z,99.99
2022-09-24T04:18:14.461Z,99.99
2022-09-24T04:19:14.481Z,99.99
2022-09-24T04:20:14.442Z,99.99
2022-09-24T04:21:14.427Z,99.99
2022-09-24T04:22:14.415Z,99.99
2022-09-24T04:23:14.414Z,99.99
2022-09-24T04:24:14.422Z,99.99
2022-09-24T04:25:15.037Z,99.99
2022-09-24T04:26:14.374Z,99.99
2022-09-24T04:27:14.372Z,99.99
2022-09-24T04:28:14.347Z,99.99
2022-09-24T04:29:14.344Z,99.99
2022-09-24T04:30:14.366Z,99.99
2022-09-24T04:31:14.373Z,99.99
2022-09-24T04:32:14.310Z,99.99
2022-09-24T04:33:14.306Z,99.99
2022-09-24T04:34:14.314Z,99.99
2022-09-24T04:35:14.277Z,99.99
2022-09-24T04:36:14.276Z,99.99
2022-09-24T04:37:14.266Z,99.99
2022-09-24T04:38:14.261Z,99.99
2022-09-24T04:39:14.257Z,99.99
2022-09-24T04:40:14.360Z,99.99
2022-09-24T04:41:14.208Z,99.99
2022-09-24T04:42:14.207Z,99.99
2022-09-24T04:43:14.189Z,99.99
2022-09-24T04:44:14.198Z,99.99
2022-09-24T04:45:14.168Z,99.99
2022-09-24T04:46:14.198Z,99.99
2022-09-24T04:47:14.149Z,99.99
2022-09-24T04:48:14.136Z,99.99
2022-09-24T04:49:14.136Z,99.99
2022-09-24T04:50:14.129Z,99.99
2022-09-24T04:51:14.099Z,99.99
2022-09-24T04:52:14.090Z,99.99
2022-09-24T04:53:14.088Z,99.99
2022-09-24T04:54:14.068Z,99.99
2022-09-24T04:55:14.084Z,99.99
2022-09-24T04:56:14.069Z,99.99
2022-09-24T04:57:14.041Z,99.99
2022-09-24T04:58:14.027Z,99.99
2022-09-24T04:59:14.020Z,99.99
2022-09-24T05:00:14.002Z,99.99
2022-09-24T05:01:14.071Z,99.99
2022-09-24T05:02:14.128Z,99.99
2022-09-24T05:03:14.031Z,99.99
2022-09-24T05:04:13.963Z,99.99
2022-09-24T05:05:13.952Z,99.99
2022-09-24T05:06:13.960Z,99.99
2022-09-24T05:07:13.927Z,99.99
2022-09-24T05:08:13.912Z,99.99
2022-09-24T05:09:14.142Z,99.99
2022-09-24T05:10:13.893Z,99.99
2022-09-24T05:11:13.891Z,99.99
2022-09-24T05:12:13.892Z,99.99
2022-09-24T05:13:13.864Z,99.99
2022-09-24T05:14:13.849Z,99.99
2022-09-24T05:15:13.842Z,99.99
2022-09-24T05:16:13.892Z,99.99
2022-09-24T05:17:13.823Z,99.99
2022-09-24T05:18:13.806Z,99.99
2022-09-24T05:19:13.799Z,99.99
2022-09-24T05:20:13.782Z,99.99
2022-09-24T05:21:13.780Z,99.99
2022-09-24T05:22:13.801Z,99.99
2022-09-24T05:23:13.753Z,99.99
2022-09-24T05:24:13.742Z,99.99
2022-09-24T05:25:13.734Z,99.99
2022-09-24T05:26:13.759Z,99.99
2022-09-24T05:27:13.734Z,99.99
2022-09-24T05:28:13.702Z,99.99
2022-09-24T05:29:13.683Z,99.99
2022-09-24T05:30:13.684Z,99.99
2022-09-24T05:31:13.696Z,99.99
2022-09-24T05:32:13.653Z,99.99
2022-09-24T05:33:13.676Z,99.99
2022-09-24T05:34:13.636Z,99.99
2022-09-24T05:35:13.659Z,99.99
2022-09-24T05:36:13.615Z,99.99
2022-09-24T05:37:13.607Z,99.99
2022-09-24T05:38:13.613Z,99.99
2022-09-24T05:39:13.583Z,99.99
2022-09-24T05:40:13.595Z,99.99
2022-09-24T05:41:13.565Z,99.99
2022-09-24T05:42:13.546Z,99.99
2022-09-24T05:43:13.545Z,99.99
2022-09-24T05:44:13.544Z,99.99
2022-09-24T05:45:13.516Z,99.99
2022-09-24T05:46:13.556Z,99.99
2022-09-24T05:47:13.496Z,99.99
2022-09-24T05:48:13.485Z,99.99
2022-09-24T05:49:13.505Z,99.99
2022-09-24T05:50:13.469Z,99.99
2022-09-24T05:51:13.457Z,99.99
2022-09-24T05:52:13.447Z,99.99
2022-09-24T05:53:13.427Z,99.99
2022-09-24T05:54:13.427Z,99.99
2022-09-24T05:55:13.434Z,99.99
2022-09-24T05:56:13.396Z,99.99
2022-09-24T05:57:13.387Z,99.99
2022-09-24T05:58:13.374Z,99.99
2022-09-24T05:59:13.401Z,99.99
2022-09-24T06:00:13.356Z,99.99
2022-09-24T06:01:13.346Z,99.99
2022-09-24T06:02:13.407Z,99.99
2022-09-24T06:03:13.379Z,99.99
2022-09-24T06:04:13.336Z,99.99
2022-09-24T06:05:13.317Z,99.99
2022-09-24T06:06:13.291Z,99.99
2022-09-24T06:07:13.281Z,99.99
2022-09-24T06:08:13.268Z,99.99
2022-09-24T06:09:13.259Z,99.99
2022-09-24T06:10:13.267Z,99.99
2022-09-24T06:11:13.241Z,99.99
2022-09-24T06:12:13.228Z,99.99
2022-09-24T06:13:13.217Z,99.99
2022-09-24T06:14:13.231Z,99.99
2022-09-24T06:15:13.208Z,99.99
2022-09-24T06:16:13.236Z,99.99
2022-09-24T06:17:13.192Z,99.99
2022-09-24T06:18:13.162Z,99.99
2022-09-24T06:19:13.171Z,99.99
2022-09-24T06:20:13.138Z,99.99
2022-09-24T06:21:13.131Z,99.99
2022-09-24T06:22:13.121Z,99.99
2022-09-24T06:23:13.109Z,99.99
2022-09-24T06:24:13.091Z,99.99
2022-09-24T06:25:13.111Z,99.99
2022-09-24T06:26:13.071Z,99.99
2022-09-24T06:27:13.065Z,99.99
2022-09-24T06:28:13.060Z,99.99
2022-09-24T06:29:13.041Z,99.99
2022-09-24T06:30:13.062Z,99.99
2022-09-24T06:31:13.111Z,99.99
2022-09-24T06:32:13.039Z,99.99
2022-09-24T06:33:12.996Z,99.99
2022-09-24T06:34:12.983Z,99.99
2022-09-24T06:35:13.004Z,99.99
2022-09-24T06:36:12.962Z,99.99
2022-09-24T06:37:12.964Z,99.99
2022-09-24T06:38:12.936Z,99.99
2022-09-24T06:39:12.940Z,99.99
2022-09-24T06:40:12.962Z,99.99
2022-09-24T06:41:12.914Z,99.99
2022-09-24T06:42:12.893Z,99.99
2022-09-24T06:43:12.891Z,99.99
2022-09-24T06:44:12.873Z,99.99
2022-09-24T06:45:12.888Z,99.99
2022-09-24T06:46:12.904Z,99.99
2022-09-24T06:47:12.847Z,99.99
2022-09-24T06:48:12.835Z,99.99
2022-09-24T06:49:12.834Z,99.99
2022-09-24T06:50:12.836Z,99.99
2022-09-24T06:51:12.818Z,99.99
2022-09-24T06:52:12.797Z,99.99
2022-09-24T06:53:12.782Z,99.99
2022-09-24T06:54:12.778Z,99.99
2022-09-24T06:55:12.768Z,99.99
2022-09-24T06:56:12.769Z,99.99
2022-09-24T06:57:12.770Z,99.99
2022-09-24T06:58:12.725Z,99.99
2022-09-24T06:59:12.718Z,99.99
2022-09-24T07:00:12.706Z,99.99
2022-09-24T07:01:12.735Z,99.99
2022-09-24T07:02:12.799Z,99.99
2022-09-24T07:03:12.673Z,99.99
2022-09-24T07:04:12.658Z,99.99
2022-09-24T07:05:12.656Z,99.99
2022-09-24T07:06:12.659Z,99.99
2022-09-24T07:07:12.626Z,99.99
2022-09-24T07:08:12.618Z,99.99
2022-09-24T07:09:12.608Z,99.99
2022-09-24T07:10:12.596Z,99.99
2022-09-24T07:11:12.590Z,99.99
2022-09-24T07:12:12.597Z,99.99
2022-09-24T07:13:12.615Z,99.99
2022-09-24T07:14:12.549Z,99.99
2022-09-24T07:15:12.548Z,99.99
2022-09-24T07:16:12.606Z,99.99
2022-09-24T07:17:12.525Z,99.99
2022-09-24T07:18:12.545Z,99.99
2022-09-24T07:19:12.508Z,99.99
2022-09-24T07:20:12.480Z,99.99
2022-09-24T07:21:12.479Z,99.99
2022-09-24T07:22:12.460Z,99.99
2022-09-24T07:23:12.470Z,99.99
2022-09-24T07:24:12.440Z,99.99
2022-09-24T07:25:12.439Z,99.99
2022-09-24T07:26:12.417Z,99.99
2022-09-24T07:27:12.739Z,99.99
2022-09-24T07:28:12.419Z,99.99
2022-09-24T07:29:12.389Z,99.99
2022-09-24T07:30:12.377Z,99.99
2022-09-24T07:31:12.451Z,99.99
2022-09-24T07:32:12.349Z,99.99
2022-09-24T07:33:12.369Z,99.99
2022-09-24T07:34:12.442Z,99.99
2022-09-24T07:35:12.327Z,99.99
2022-09-24T07:36:12.312Z,99.99
2022-09-24T07:37:12.302Z,99.99
2022-09-24T07:38:12.527Z,99.99
2022-09-24T07:39:12.304Z,99.99
2022-09-24T07:40:12.301Z,99.99
2022-09-24T07:41:12.252Z,99.99
2022-09-24T07:42:12.242Z,99.99
2022-09-24T07:43:12.243Z,99.99
2022-09-24T07:44:12.300Z,99.99
2022-09-24T07:45:12.233Z,99.99
2022-09-24T07:46:12.262Z,99.99
2022-09-24T07:47:15.480Z,99.99
2022-09-24T07:48:12.183Z,99.99
2022-09-24T07:49:12.174Z,99.99
2022-09-24T07:50:12.179Z,99.99
2022-09-24T07:51:12.157Z,99.99
2022-09-24T07:52:12.133Z,99.99
2022-09-24T07:53:12.126Z,99.99
2022-09-24T07:54:16.882Z,99.99
2022-09-24T07:55:13.124Z,99.99
2022-09-24T07:56:12.085Z,99.99
2022-09-24T07:57:12.085Z,99.99
2022-09-24T07:58:12.071Z,99.99
2022-09-24T07:59:12.063Z,99.99
2022-09-24T08:00:12.067Z,99.99
2022-09-24T08:01:12.107Z,99.99
2022-09-24T08:02:12.094Z,99.99
2022-09-24T08:03:12.022Z,99.99
2022-09-24T08:04:12.211Z,99.99
2022-09-24T08:05:12.044Z,99.99
2022-09-24T08:06:11.986Z,99.99
2022-09-24T08:07:11.966Z,99.99
2022-09-24T08:08:11.957Z,99.99
2022-09-24T08:09:11.953Z,99.99
2022-09-24T08:10:11.935Z,99.99
2022-09-24T08:11:11.947Z,99.99
2022-09-24T08:12:11.918Z,99.99
2022-09-24T08:13:11.911Z,99.99
2022-09-24T08:14:11.955Z,99.99
2022-09-24T08:15:11.907Z,99.99
2022-09-24T08:16:11.883Z,99.99
2022-09-24T08:17:11.863Z,99.99
2022-09-24T08:18:11.856Z,99.99
2022-09-24T08:19:11.846Z,99.99
2022-09-24T08:20:11.833Z,99.99
2022-09-24T08:21:11.926Z,99.99
2022-09-24T08:22:11.807Z,99.99
2022-09-24T08:23:11.808Z,99.99
2022-09-24T08:24:11.823Z,99.99
2022-09-24T08:25:11.784Z,99.99
2022-09-24T08:26:11.790Z,99.99
2022-09-24T08:27:17.017Z,99.99
2022-09-24T08:28:12.748Z,99.99
2022-09-24T08:29:11.738Z,99.99
2022-09-24T08:30:11.719Z,99.99
2022-09-24T08:31:11.755Z,99.99
2022-09-24T08:32:11.718Z,99.99
2022-09-24T08:33:11.689Z,99.99
2022-09-24T08:34:11.767Z,99.99
2022-09-24T08:35:11.669Z,99.99
2022-09-24T08:36:11.682Z,99.99
2022-09-24T08:37:11.641Z,99.99
2022-09-24T08:38:11.640Z,99.99
2022-09-24T08:39:11.641Z,99.99
2022-09-24T08:40:11.645Z,99.99
2022-09-24T08:41:11.611Z,99.99
2022-09-24T08:42:11.583Z,99.99
2022-09-24T08:43:11.580Z,99.99
2022-09-24T08:44:11.643Z,99.99
2022-09-24T08:45:11.553Z,99.99
2022-09-24T08:46:11.643Z,99.99
2022-09-24T08:47:11.553Z,99.99
2022-09-24T08:48:11.530Z,99.92
2022-09-24T08:49:11.512Z,99.92
2022-09-24T08:50:11.503Z,99.62
2022-09-24T08:51:11.517Z,99.11
2022-09-24T08:52:11.484Z,98.91
2022-09-24T08:53:11.463Z,98.61
2022-09-24T08:54:11.538Z,99.01
2022-09-24T08:55:11.462Z,99.11
2022-09-24T08:56:11.462Z,98.76
2022-09-24T08:57:11.415Z,98.66
2022-09-24T08:58:11.412Z,98.96
2022-09-24T08:59:11.415Z,98.56
2022-09-24T09:00:11.394Z,97.91
2022-09-24T09:01:11.446Z,97.60
2022-09-24T09:02:11.522Z,97.30
2022-09-24T09:03:11.398Z,97.71
2022-09-24T09:04:11.380Z,97.20
2022-09-24T09:05:11.344Z,96.80
2022-09-24T09:06:11.350Z,97.30
2022-09-24T09:07:11.307Z,97.20
2022-09-24T09:08:33.856Z,96.69
2022-09-24T09:09:12.298Z,96.59
2022-09-24T09:10:11.277Z,96.80
2022-09-24T09:11:11.286Z,96.45
2022-09-24T09:12:11.257Z,96.45
2022-09-24T09:13:11.251Z,95.74
2022-09-24T09:14:11.288Z,95.74
2022-09-24T09:15:11.248Z,95.54
2022-09-24T09:16:11.304Z,95.43
2022-09-24T09:17:11.198Z,96.10
2022-09-24T09:18:11.199Z,96.80
2022-09-24T09:19:11.246Z,96.80
2022-09-24T09:20:11.187Z,96.30
2022-09-24T09:21:11.178Z,95.19
2022-09-24T09:22:11.150Z,94.68
2022-09-24T09:23:11.163Z,94.28
2022-09-24T09:24:11.130Z,94.59
2022-09-24T09:25:11.119Z,95.19
2022-09-24T09:26:11.111Z,94.99
2022-09-24T09:27:11.089Z,93.57
2022-09-24T09:28:11.081Z,93.27
2022-09-24T09:29:11.139Z,92.77
2022-09-24T09:30:14.151Z,93.93
2022-09-24T09:31:11.096Z,93.33
2022-09-24T09:32:11.044Z,91.96
2022-09-24T09:33:11.022Z,92.72
2022-09-24T09:34:11.157Z,93.63
2022-09-24T09:35:11.003Z,93.59
2022-09-24T09:36:11.002Z,93.69
2022-09-24T09:37:11.005Z,92.52
2022-09-24T09:38:11.003Z,93.33
2022-09-24T09:39:11.032Z,92.66
2022-09-24T09:40:11.005Z,93.17
2022-09-24T09:41:10.944Z,93.12
2022-09-24T09:42:10.945Z,93.62
2022-09-24T09:43:10.947Z,94.32
2022-09-24T09:44:10.980Z,94.53
2022-09-24T09:45:10.893Z,94.23
2022-09-24T09:46:11.039Z,94.38
2022-09-24T09:47:10.872Z,94.28
2022-09-24T09:48:10.865Z,93.68
2022-09-24T09:49:10.874Z,93.77
2022-09-24T09:50:10.847Z,93.27
2022-09-24T09:51:10.839Z,92.97
2022-09-24T09:52:10.817Z,92.86
2022-09-24T09:53:10.830Z,91.86
2022-09-24T09:54:10.831Z,91.55
2022-09-24T09:55:10.795Z,91.25
2022-09-24T09:56:10.775Z,91.76
2022-09-24T09:57:10.768Z,93.01
2022-09-24T09:58:10.773Z,92.81
2022-09-24T09:59:10.765Z,92.91
2022-09-24T10:00:10.735Z,93.12
2022-09-24T10:01:10.729Z,94.23
2022-09-24T10:02:10.763Z,94.93
2022-09-24T10:03:10.762Z,93.82
2022-09-24T10:04:10.711Z,93.12
2022-09-24T10:05:13.292Z,93.12
2022-09-24T10:06:11.671Z,92.86
2022-09-24T10:07:10.650Z,92.46
2022-09-24T10:08:10.640Z,92.97
2022-09-24T10:09:10.657Z,93.02
2022-09-24T10:10:10.623Z,91.41
2022-09-24T10:11:10.611Z,89.90
2022-09-24T10:12:10.601Z,89.05
2022-09-24T10:13:10.593Z,88.14
2022-09-24T10:14:10.640Z,88.20
2022-09-24T10:15:10.571Z,87.40
2022-09-24T10:16:10.603Z,88.76
2022-09-24T10:17:10.541Z,88.36
2022-09-24T10:18:10.532Z,88.06
2022-09-24T10:19:10.552Z,88.20
2022-09-24T10:20:10.524Z,88.20
2022-09-24T10:21:10.499Z,88.20
2022-09-24T10:22:10.492Z,86.79
2022-09-24T10:23:10.482Z,86.53
2022-09-24T10:24:10.497Z,85.66
2022-09-24T10:25:10.453Z,85.76
2022-09-24T10:26:10.471Z,86.57
2022-09-24T10:27:10.433Z,86.57
2022-09-24T10:28:10.424Z,87.68
2022-09-24T10:29:10.414Z,87.18
2022-09-24T10:30:10.423Z,87.01
2022-09-24T10:31:10.526Z,87.78
2022-09-24T10:32:10.411Z,87.18
2022-09-24T10:33:10.365Z,87.38
2022-09-24T10:34:10.357Z,84.75
2022-09-24T10:35:10.448Z,85.22
2022-09-24T10:36:10.362Z,86.08
2022-09-24T10:37:11.180Z,85.28
2022-09-24T10:38:10.317Z,85.24
2022-09-24T10:39:10.304Z,84.09
2022-09-24T10:40:10.434Z,83.45
2022-09-24T10:41:10.307Z,83.99
2022-09-24T10:42:10.287Z,84.75
2022-09-24T10:43:10.257Z,82.74
2022-09-24T10:44:10.256Z,83.61
2022-09-24T10:45:10.237Z,83.14
2022-09-24T10:46:10.282Z,84.29
2022-09-24T10:47:10.237Z,83.59
2022-09-24T10:48:10.225Z,82.92
2022-09-24T10:49:10.195Z,84.07
2022-09-24T10:50:10.189Z,85.11
2022-09-24T10:51:10.169Z,85.52
2022-09-24T10:52:10.200Z,85.02
2022-09-24T10:53:10.148Z,85.02
2022-09-24T10:54:10.227Z,84.77
2022-09-24T10:55:10.132Z,84.11
2022-09-24T10:56:10.121Z,84.91
2022-09-24T10:57:10.130Z,85.08
2022-09-24T10:58:10.101Z,84.47
2022-09-24T10:59:10.081Z,85.17
2022-09-24T11:00:10.082Z,84.67
2022-09-24T11:01:10.062Z,84.77
2022-09-24T11:02:10.129Z,84.97
2022-09-24T11:03:10.113Z,86.69
2022-09-24T11:04:10.071Z,85.68
2022-09-24T11:05:10.029Z,85.38
2022-09-24T11:06:10.020Z,85.28
2022-09-24T11:07:10.024Z,84.41
2022-09-24T11:08:09.992Z,85.28
2022-09-24T11:09:09.976Z,85.48
2022-09-24T11:10:10.240Z,85.42
2022-09-24T11:11:09.971Z,84.81
2022-09-24T11:12:09.952Z,84.45
2022-09-24T11:13:09.954Z,83.84
2022-09-24T11:14:09.974Z,83.95
2022-09-24T11:15:09.915Z,84.95
2022-09-24T11:16:09.989Z,85.56
2022-09-24T11:17:09.915Z,84.55
2022-09-24T11:18:09.888Z,85.56
2022-09-24T11:19:09.875Z,85.52
2022-09-24T11:20:09.867Z,85.22
2022-09-24T11:21:09.844Z,85.72
2022-09-24T11:22:09.835Z,86.53
2022-09-24T11:23:09.847Z,84.91
2022-09-24T11:24:09.848Z,84.31
2022-09-24T11:25:09.796Z,85.31
2022-09-24T11:26:09.794Z,84.37
2022-09-24T11:27:09.797Z,84.67
2022-09-24T11:28:09.780Z,84.88
2022-09-24T11:29:09.758Z,82.45
2022-09-24T11:30:09.778Z,82.90
2022-09-24T11:31:09.819Z,82.50
2022-09-24T11:32:09.726Z,81.79
2022-09-24T11:33:09.762Z,82.79
2022-09-24T11:34:09.778Z,82.90
2022-09-24T11:35:09.726Z,83.30
2022-09-24T11:36:09.707Z,82.59
2022-09-24T11:37:09.669Z,82.70
2022-09-24T11:38:09.709Z,82.59
2022-09-24T11:39:09.651Z,82.59
2022-09-24T11:40:09.707Z,82.79
2022-09-24T11:41:09.629Z,81.99
2022-09-24T11:42:09.619Z,81.85
2022-09-24T11:43:09.601Z,81.04
2022-09-24T11:44:09.672Z,82.70
2022-09-24T11:45:09.582Z,83.00
2022-09-24T11:46:09.611Z,83.60
2022-09-24T11:47:09.560Z,83.91
2022-09-24T11:48:09.578Z,84.57
2022-09-24T11:49:09.552Z,81.75
2022-09-24T11:50:09.538Z,82.50
2022-09-24T11:51:09.520Z,83.46
2022-09-24T11:52:10.452Z,81.95
2022-09-24T11:53:09.498Z,82.76
2022-09-24T11:54:09.550Z,83.16
2022-09-24T11:55:09.471Z,82.45
2022-09-24T11:56:13.083Z,83.06
2022-09-24T11:57:09.451Z,83.87
2022-09-24T11:58:09.446Z,81.75
2022-09-24T11:59:09.455Z,82.35
2022-09-24T12:00:09.429Z,82.15
2022-09-24T12:01:09.402Z,82.56
2022-09-24T12:02:09.530Z,81.99
2022-09-24T12:03:09.451Z,81.18
2022-09-24T12:04:09.437Z,81.89
2022-09-24T12:05:09.364Z,82.09
2022-09-24T12:06:09.356Z,82.29
2022-09-24T12:07:09.345Z,83.00
2022-09-24T12:08:09.335Z,83.70
2022-09-24T12:09:09.343Z,83.80
2022-09-24T12:10:09.316Z,84.01
2022-09-24T12:11:09.299Z,82.90
2022-09-24T12:12:09.287Z,83.30
2022-09-24T12:13:09.278Z,82.59
2022-09-24T12:14:09.331Z,83.00
2022-09-24T12:15:09.278Z,83.40
2022-09-24T12:16:09.291Z,82.93
2022-09-24T12:17:09.240Z,83.34
2022-09-24T12:18:09.228Z,84.45
2022-09-24T12:19:09.245Z,85.16
2022-09-24T12:20:09.199Z,84.95
2022-09-24T12:21:09.193Z,84.65
2022-09-24T12:22:09.190Z,84.25
2022-09-24T12:23:09.168Z,84.35
2022-09-24T12:24:09.183Z,84.35
2022-09-24T12:25:09.149Z,84.25
2022-09-24T12:26:09.146Z,84.85
2022-09-24T12:27:09.131Z,84.85
2022-09-24T12:28:09.121Z,84.65
2022-09-24T12:29:09.122Z,84.65
2022-09-24T12:30:09.100Z,84.05
2022-09-24T12:31:12.264Z,83.95
2022-09-24T12:32:09.083Z,83.95
2022-09-24T12:33:09.061Z,83.38
2022-09-24T12:34:09.236Z,83.58
2022-09-24T12:35:09.042Z,83.44
2022-09-24T12:36:09.037Z,83.18
2022-09-24T12:37:09.011Z,83.18
2022-09-24T12:38:09.010Z,83.54
2022-09-24T12:39:09.021Z,82.84
2022-09-24T12:40:09.276Z,81.73
2022-09-24T12:41:08.972Z,82.33
2022-09-24T12:42:08.963Z,82.53
2022-09-24T12:43:08.952Z,82.64
2022-09-24T12:44:09.046Z,81.93
2022-09-24T12:45:08.932Z,82.53
2022-09-24T12:46:08.961Z,82.13
2022-09-24T12:47:08.915Z,82.13
2022-09-24T12:48:08.923Z,83.44
2022-09-24T12:49:08.885Z,81.93
2022-09-24T12:50:08.945Z,81.52
2022-09-24T12:51:08.866Z,82.17
2022-09-24T12:52:08.853Z,82.43